createdAt,value
2023-08-29T00:02:18.342Z,1.40
2023-08-29T00:04:45.198Z,1.30
2023-08-29T00:07:12.079Z,1.30
2023-08-29T00:09:39.078Z,1.40
2023-08-29T00:12:06.389Z,1.33
2023-08-29T00:14:33.268Z,1.10
2023-08-29T00:17:00.160Z,1.30
2023-08-29T00:19:27.073Z,1.15
2023-08-29T00:21:53.932Z,1.40
2023-08-29T00:24:21.010Z,1.33
2023-08-29T00:26:47.922Z,1.50
2023-08-29T00:29:14.763Z,1.27
2023-08-29T00:31:41.706Z,1.40
2023-08-29T00:34:08.877Z,1.17
2023-08-29T00:36:35.769Z,1.40
2023-08-29T00:39:03.938Z,1.40
2023-08-29T00:41:31.851Z,1.17
2023-08-29T00:43:58.774Z,1.27
2023-08-29T00:46:27.226Z,1.40
2023-08-29T00:48:56.217Z,1.30
2023-08-29T00:51:24.915Z,1.20
2023-08-29T00:53:51.947Z,1.17
2023-08-29T00:56:19.243Z,1.48
2023-08-29T00:58:46.752Z,1.17
2023-08-29T01:01:18.177Z,1.38
2023-08-29T01:03:46.632Z,1.40
2023-08-29T01:06:16.903Z,1.20
2023-08-29T01:08:47.186Z,1.40
2023-08-29T01:11:26.929Z,1.30
2023-08-29T01:14:37.075Z,1.40
2023-08-29T01:17:12.180Z,1.20
2023-08-29T01:19:43.206Z,1.33
2023-08-29T01:22:28.740Z,1.30
2023-08-29T01:25:35.632Z,1.42
2023-08-29T01:28:04.102Z,1.38
2023-08-29T01:30:33.812Z,1.20
2023-08-29T01:33:01.461Z,1.13
2023-08-29T01:35:28.446Z,1.13
2023-08-29T01:37:55.347Z,1.23
2023-08-29T01:40:23.950Z,1.20
2023-08-29T01:42:51.541Z,1.30
2023-08-29T01:45:18.514Z,1.20
2023-08-29T01:47:45.484Z,1.25
2023-08-29T01:50:14.827Z,1.20
2023-08-29T01:52:42.217Z,1.20
2023-08-29T01:55:09.485Z,1.17
2023-08-29T01:57:37.528Z,1.20
2023-08-29T02:00:05.706Z,1.30
2023-08-29T02:02:41.437Z,1.40
2023-08-29T02:05:09.076Z,1.20
2023-08-29T02:07:36.547Z,1.10
2023-08-29T02:10:04.091Z,1.27
2023-08-29T02:12:30.957Z,1.00
2023-08-29T02:14:57.863Z,1.30
2023-08-29T02:17:24.941Z,1.23
2023-08-29T02:19:51.914Z,1.10
2023-08-29T02:22:18.868Z,1.20
2023-08-29T02:24:48.798Z,1.35
2023-08-29T02:27:15.834Z,1.25
2023-08-29T02:29:42.778Z,1.20
2023-08-29T02:32:09.744Z,1.40
2023-08-29T02:34:36.726Z,1.38
2023-08-29T02:37:04.184Z,1.30
2023-08-29T02:39:31.652Z,1.33
2023-08-29T02:41:58.858Z,1.20
2023-08-29T02:44:27.488Z,1.60
2023-08-29T02:46:54.695Z,1.48
2023-08-29T02:49:21.865Z,1.50
2023-08-29T02:51:49.549Z,1.30
2023-08-29T02:54:16.493Z,1.38
2023-08-29T02:56:46.657Z,1.23
2023-08-29T02:59:13.857Z,1.33
2023-08-29T03:01:40.747Z,1.40
2023-08-29T03:04:07.740Z,1.30
2023-08-29T03:06:36.709Z,1.23
2023-08-29T03:09:04.420Z,1.20
2023-08-29T03:11:31.366Z,1.15
2023-08-29T03:13:59.251Z,1.17
2023-08-29T03:16:26.203Z,1.40
2023-08-29T03:18:53.417Z,1.35
2023-08-29T03:21:20.457Z,1.13
2023-08-29T03:23:47.476Z,1.23
2023-08-29T03:26:14.422Z,1.40
2023-08-29T03:28:42.881Z,1.33
2023-08-29T03:31:18.111Z,1.27
2023-08-29T03:33:46.191Z,1.52
2023-08-29T03:36:13.298Z,1.40
2023-08-29T03:38:43.191Z,1.15
2023-08-29T03:41:10.214Z,1.30
2023-08-29T03:43:37.844Z,1.40
2023-08-29T03:46:07.804Z,1.50
2023-08-29T03:48:37.173Z,1.40
2023-08-29T03:51:07.761Z,1.20
2023-08-29T03:53:39.183Z,1.35
2023-08-29T03:56:10.652Z,1.30
2023-08-29T03:58:38.048Z,1.50
2023-08-29T04:01:05.720Z,1.27
2023-08-29T04:03:33.562Z,1.13
2023-08-29T04:06:02.630Z,1.30
2023-08-29T04:08:29.666Z,1.35
2023-08-29T04:10:57.997Z,1.42
2023-08-29T04:13:25.354Z,1.33
2023-08-29T04:15:52.310Z,1.20
2023-08-29T04:18:19.294Z,1.40
2023-08-29T04:20:46.219Z,1.10
2023-08-29T04:23:13.483Z,1.40
2023-08-29T04:25:40.421Z,1.40
2023-08-29T04:28:08.034Z,1.40
2023-08-29T04:30:36.580Z,1.33
2023-08-29T04:33:04.486Z,1.33
2023-08-29T04:35:31.521Z,1.25
2023-08-29T04:37:58.565Z,1.40
2023-08-29T04:40:25.477Z,1.42
2023-08-29T04:42:52.798Z,1.50
2023-08-29T04:45:20.812Z,1.55
2023-08-29T04:47:48.603Z,1.17
2023-08-29T04:50:16.216Z,1.60
2023-08-29T04:52:43.758Z,1.40
2023-08-29T04:55:11.481Z,1.40
2023-08-29T04:57:38.676Z,1.38
2023-08-29T05:00:08.044Z,1.65
2023-08-29T05:02:35.107Z,1.60
2023-08-29T05:05:02.210Z,1.60
2023-08-29T05:07:29.116Z,1.40
2023-08-29T05:09:57.219Z,1.58
2023-08-29T05:12:24.598Z,1.50
2023-08-29T05:14:54.844Z,1.50
2023-08-29T05:17:22.392Z,1.27
2023-08-29T05:19:50.666Z,1.50
2023-08-29T05:22:17.840Z,1.33
2023-08-29T05:24:44.871Z,1.58
2023-08-29T05:27:11.755Z,1.50
2023-08-29T05:29:40.047Z,1.45
2023-08-29T05:32:07.213Z,1.42
2023-08-29T05:34:34.447Z,1.40
2023-08-29T05:37:01.632Z,1.40
2023-08-29T05:39:28.504Z,1.40
2023-08-29T05:41:55.413Z,1.48
2023-08-29T05:44:22.287Z,1.50
2023-08-29T05:46:49.205Z,1.35
2023-08-29T05:49:17.535Z,1.40
2023-08-29T05:51:44.453Z,1.60
2023-08-29T05:54:11.465Z,1.50
2023-08-29T05:56:39.089Z,1.58
2023-08-29T05:59:06.794Z,1.60
2023-08-29T06:01:36.340Z,1.50
2023-08-29T06:04:05.663Z,1.70
2023-08-29T06:06:33.078Z,1.60
2023-08-29T06:09:00.479Z,1.55
2023-08-29T06:11:30.232Z,2.00
2023-08-29T06:13:57.100Z,1.60
2023-08-29T06:16:24.055Z,1.50
2023-08-29T06:18:51.041Z,1.20
2023-08-29T06:21:18.395Z,1.60
2023-08-29T06:23:45.303Z,1.50
2023-08-29T06:26:12.421Z,1.40
2023-08-29T06:28:39.392Z,1.38
2023-08-29T06:31:08.928Z,1.80
2023-08-29T06:33:38.009Z,1.50
2023-08-29T06:36:05.282Z,1.60
2023-08-29T06:38:34.111Z,1.33
2023-08-29T06:41:04.179Z,1.58
2023-08-29T06:43:31.580Z,1.40
2023-08-29T06:45:58.540Z,1.55
2023-08-29T06:48:25.420Z,1.42
2023-08-29T06:50:52.416Z,1.30
2023-08-29T06:53:19.329Z,1.50
2023-08-29T06:55:51.153Z,1.40
2023-08-29T06:58:18.153Z,1.48
2023-08-29T07:00:45.106Z,1.83
2023-08-29T07:03:13.437Z,1.60
2023-08-29T07:05:40.877Z,1.30
2023-08-29T07:08:08.369Z,1.50
2023-08-29T07:10:35.654Z,1.50
2023-08-29T07:13:02.655Z,1.60
2023-08-29T07:15:29.563Z,1.67
2023-08-29T07:17:56.638Z,1.50
2023-08-29T07:20:23.666Z,1.50
2023-08-29T07:22:50.576Z,1.88
2023-08-29T07:25:19.326Z,1.65
2023-08-29T07:27:46.247Z,1.70
2023-08-29T07:30:16.510Z,1.45
2023-08-29T07:32:45.326Z,1.30
2023-08-29T07:35:12.468Z,1.55
2023-08-29T07:37:39.362Z,1.50
2023-08-29T07:40:06.817Z,2.15
2023-08-29T07:42:33.716Z,2.50
2023-08-29T07:45:00.958Z,4.82
2023-08-29T07:47:28.174Z,4.78
2023-08-29T07:49:55.056Z,4.80
2023-08-29T07:52:22.001Z,3.83
2023-08-29T07:54:48.919Z,4.10
2023-08-29T07:57:15.876Z,4.57
2023-08-29T07:59:43.020Z,4.63
2023-08-29T08:02:10.060Z,4.68
2023-08-29T08:04:38.137Z,4.45
2023-08-29T08:07:05.280Z,4.18
2023-08-29T08:09:32.698Z,4.60
2023-08-29T08:11:59.666Z,4.70
2023-08-29T08:14:26.527Z,4.55
2023-08-29T08:16:53.488Z,4.45
2023-08-29T08:19:20.477Z,5.25
2023-08-29T08:21:48.886Z,4.25
2023-08-29T08:24:17.823Z,4.60
2023-08-29T08:26:44.909Z,4.55
2023-08-29T08:29:11.822Z,4.45
2023-08-29T08:31:39.276Z,4.47
2023-08-29T08:34:06.170Z,4.13
2023-08-29T08:36:33.133Z,3.95
2023-08-29T08:38:59.991Z,3.85
2023-08-29T08:41:27.197Z,4.05
2023-08-29T08:43:56.583Z,4.10
2023-08-29T08:46:24.052Z,3.70
2023-08-29T08:48:51.367Z,4.20
2023-08-29T08:51:22.216Z,3.63
2023-08-29T08:53:54.026Z,3.63
2023-08-29T08:56:21.626Z,3.25
2023-08-29T08:58:48.754Z,3.60
2023-08-29T09:01:15.719Z,3.58
2023-08-29T09:03:44.569Z,3.13
2023-08-29T09:06:14.005Z,4.10
2023-08-29T09:08:41.531Z,3.42
2023-08-29T09:11:09.775Z,3.60
2023-08-29T09:13:45.962Z,3.17
2023-08-29T09:16:13.807Z,3.15
2023-08-29T09:18:44.950Z,3.10
2023-08-29T09:21:20.118Z,3.42
2023-08-29T09:23:47.150Z,2.80
2023-08-29T09:26:14.849Z,3.10
2023-08-29T09:28:42.147Z,3.03
2023-08-29T09:31:11.992Z,2.67
2023-08-29T09:33:40.425Z,3.40
2023-08-29T09:36:08.123Z,2.92
2023-08-29T09:38:36.203Z,2.90
2023-08-29T09:41:03.594Z,2.97
2023-08-29T09:43:31.637Z,3.13
2023-08-29T09:46:00.566Z,3.38
2023-08-29T09:48:29.182Z,3.40
2023-08-29T09:50:59.737Z,2.60
2023-08-29T09:53:29.995Z,2.85
2023-08-29T09:56:10.944Z,3.42
2023-08-29T09:58:39.999Z,2.92
2023-08-29T10:01:10.665Z,3.08
2023-08-29T10:03:41.367Z,3.10
2023-08-29T10:06:12.679Z,3.13
2023-08-29T10:08:56.274Z,3.60
2023-08-29T10:11:24.468Z,3.33
2023-08-29T10:13:52.081Z,2.85
2023-08-29T10:16:20.471Z,3.05
2023-08-29T10:18:49.766Z,2.58
2023-08-29T10:21:19.325Z,2.97
2023-08-29T10:23:47.557Z,2.42
2023-08-29T10:26:15.513Z,2.75
2023-08-29T10:28:44.074Z,2.42
2023-08-29T10:31:12.354Z,2.60
2023-08-29T10:33:39.455Z,2.40
2023-08-29T10:36:10.495Z,2.33
2023-08-29T10:38:41.207Z,2.40
2023-08-29T10:41:08.204Z,2.40
2023-08-29T10:43:36.809Z,1.98
2023-08-29T10:46:13.172Z,2.35
2023-08-29T10:48:40.211Z,2.30
2023-08-29T10:51:12.480Z,2.00
2023-08-29T10:53:54.588Z,2.20
2023-08-29T10:56:39.437Z,2.15
2023-08-29T10:59:07.165Z,2.13
2023-08-29T11:01:34.910Z,1.88
2023-08-29T11:04:13.830Z,1.88
2023-08-29T11:06:55.440Z,1.80
2023-08-29T11:09:24.896Z,1.70
2023-08-29T11:12:14.115Z,1.67
2023-08-29T11:14:56.252Z,2.20
2023-08-29T11:17:24.889Z,1.63
2023-08-29T11:19:59.881Z,1.50
2023-08-29T11:22:30.328Z,1.95
2023-08-29T11:24:58.790Z,1.70
2023-08-29T11:27:30.234Z,1.50
2023-08-29T11:30:19.572Z,1.50
2023-08-29T11:32:52.710Z,1.50
2023-08-29T11:35:19.875Z,1.60
2023-08-29T11:37:46.766Z,1.50
2023-08-29T11:40:17.989Z,1.42
2023-08-29T11:43:12.662Z,1.65
2023-08-29T11:45:47.130Z,1.50
2023-08-29T11:48:32.464Z,1.40
2023-08-29T11:51:09.146Z,1.40
2023-08-29T11:53:39.936Z,1.55
2023-08-29T11:56:11.119Z,1.75
2023-08-29T11:58:40.186Z,1.45
2023-08-29T12:01:09.137Z,1.50
2023-08-29T12:03:38.553Z,1.10
2023-08-29T12:06:12.719Z,1.30
2023-08-29T12:08:45.647Z,1.50
2023-08-29T12:11:16.383Z,1.40
2023-08-29T12:14:01.651Z,1.30
2023-08-29T12:16:29.673Z,1.52
2023-08-29T12:19:14.974Z,1.38
2023-08-29T12:21:41.904Z,1.30
2023-08-29T12:24:13.243Z,1.27
2023-08-29T12:26:40.168Z,1.15
2023-08-29T12:29:07.082Z,1.15
2023-08-29T12:31:34.863Z,1.23
2023-08-29T12:34:01.908Z,1.27
2023-08-29T12:36:28.809Z,1.23
2023-08-29T12:38:55.712Z,1.10
2023-08-29T12:41:23.829Z,1.00
2023-08-29T12:43:50.759Z,1.13
2023-08-29T12:46:17.780Z,1.13
2023-08-29T12:48:44.727Z,1.20
2023-08-29T12:51:12.034Z,1.10
2023-08-29T12:53:38.952Z,1.25
2023-08-29T12:56:05.976Z,1.10
2023-08-29T12:58:32.878Z,1.30
2023-08-29T13:00:59.813Z,1.10
2023-08-29T13:03:26.835Z,1.10
2023-08-29T13:05:54.472Z,1.27
2023-08-29T13:08:21.352Z,1.00
2023-08-29T13:10:48.330Z,1.20
2023-08-29T13:13:15.314Z,1.25
2023-08-29T13:15:50.859Z,1.00
2023-08-29T13:18:19.695Z,1.30
2023-08-29T13:20:46.800Z,1.10
2023-08-29T13:23:13.841Z,1.02
2023-08-29T13:25:40.901Z,1.30
2023-08-29T13:28:08.147Z,1.13
2023-08-29T13:30:36.216Z,1.15
2023-08-29T13:33:04.452Z,1.10
2023-08-29T13:35:31.548Z,1.30
2023-08-29T13:37:58.438Z,1.40
2023-08-29T13:40:25.313Z,1.02
2023-08-29T13:42:53.420Z,1.20
2023-08-29T13:45:20.701Z,1.10
2023-08-29T13:47:48.129Z,1.10
2023-08-29T13:50:15.220Z,1.13
2023-08-29T13:52:42.089Z,0.90
2023-08-29T13:55:09.325Z,1.20
2023-08-29T13:57:36.304Z,1.20
2023-08-29T14:00:08.700Z,1.17
2023-08-29T14:02:41.775Z,1.02
2023-08-29T14:05:09.557Z,1.02
2023-08-29T14:07:37.581Z,1.10
2023-08-29T14:10:05.211Z,1.10
2023-08-29T14:12:32.147Z,1.00
2023-08-29T14:14:59.071Z,1.10
2023-08-29T14:17:26.165Z,0.80
2023-08-29T14:19:53.877Z,1.08
2023-08-29T14:22:20.791Z,1.10
2023-08-29T14:24:48.210Z,1.02
2023-08-29T14:27:15.162Z,1.20
2023-08-29T14:29:42.039Z,1.20
2023-08-29T14:32:09.003Z,0.95
2023-08-29T14:34:35.886Z,1.10
2023-08-29T14:37:03.144Z,0.95
2023-08-29T14:39:30.015Z,1.08
2023-08-29T14:41:56.991Z,0.95
2023-08-29T14:44:24.033Z,1.00
2023-08-29T14:46:51.048Z,1.10
2023-08-29T14:49:18.127Z,1.10
2023-08-29T14:51:45.211Z,1.10
2023-08-29T14:54:12.234Z,1.00
2023-08-29T14:56:39.360Z,0.90
2023-08-29T14:59:06.663Z,1.10
2023-08-29T15:01:37.720Z,1.00
2023-08-29T15:04:06.535Z,1.30
2023-08-29T15:06:34.237Z,1.33
2023-08-29T15:09:01.142Z,1.10
2023-08-29T15:11:28.142Z,1.33
2023-08-29T15:13:55.051Z,1.13
2023-08-29T15:16:22.027Z,1.13
2023-08-29T15:18:48.989Z,1.20
2023-08-29T15:21:18.094Z,1.30
2023-08-29T15:23:46.847Z,1.02
2023-08-29T15:26:13.837Z,1.23
2023-08-29T15:28:40.817Z,1.40
2023-08-29T15:31:07.753Z,1.50
2023-08-29T15:33:35.125Z,1.13
2023-08-29T15:36:02.014Z,1.20
2023-08-29T15:38:30.189Z,1.30
2023-08-29T15:40:57.239Z,1.15
2023-08-29T15:43:27.324Z,1.20
2023-08-29T15:45:56.209Z,1.30
2023-08-29T15:48:23.416Z,1.10
2023-08-29T15:50:55.230Z,1.10
2023-08-29T15:53:22.376Z,1.10
2023-08-29T15:55:49.425Z,1.05
2023-08-29T15:58:17.897Z,1.30
2023-08-29T16:00:44.890Z,1.20
2023-08-29T16:03:12.024Z,1.50
2023-08-29T16:05:39.049Z,1.40
2023-08-29T16:08:06.513Z,1.30
2023-08-29T16:10:33.710Z,1.10
2023-08-29T16:13:00.989Z,1.30
2023-08-29T16:15:28.158Z,1.30
2023-08-29T16:17:55.114Z,1.40
2023-08-29T16:20:22.279Z,1.40
2023-08-29T16:22:49.296Z,1.58
2023-08-29T16:25:16.379Z,1.30
2023-08-29T16:27:43.585Z,1.58
2023-08-29T16:30:12.064Z,1.33
2023-08-29T16:32:42.960Z,1.40
2023-08-29T16:35:09.921Z,1.35
2023-08-29T16:37:40.866Z,1.23
2023-08-29T16:40:08.997Z,1.40
2023-08-29T16:42:36.539Z,1.25
2023-08-29T16:45:05.445Z,1.50
2023-08-29T16:47:32.792Z,1.70
2023-08-29T16:49:59.701Z,1.88
2023-08-29T16:52:28.110Z,1.95
2023-08-29T16:54:55.177Z,1.90
2023-08-29T16:57:22.223Z,1.60
2023-08-29T17:00:10.999Z,1.80
2023-08-29T17:02:38.623Z,1.73
2023-08-29T17:05:06.176Z,1.65
2023-08-29T17:07:33.133Z,1.70
2023-08-29T17:10:00.797Z,1.50
2023-08-29T17:12:28.247Z,1.67
2023-08-29T17:14:55.137Z,1.23
2023-08-29T17:17:23.158Z,1.63
2023-08-29T17:19:50.334Z,1.40
2023-08-29T17:22:17.313Z,1.70
2023-08-29T17:24:44.294Z,1.60
2023-08-29T17:27:11.155Z,2.08
2023-08-29T17:29:38.056Z,1.67
2023-08-29T17:32:05.723Z,1.50
2023-08-29T17:34:52.974Z,1.63
2023-08-29T17:37:43.704Z,1.67
2023-08-29T17:40:31.018Z,1.80
2023-08-29T17:43:18.152Z,1.70
2023-08-29T17:46:07.140Z,1.70
2023-08-29T17:48:54.418Z,1.90
2023-08-29T17:51:41.583Z,1.70
2023-08-29T17:54:29.496Z,1.70
2023-08-29T17:57:16.625Z,1.73
2023-08-29T18:00:06.105Z,2.08
2023-08-29T18:02:53.279Z,1.63
2023-08-29T18:05:55.130Z,1.83
2023-08-29T18:08:44.002Z,2.05
2023-08-29T18:11:31.290Z,1.73
2023-08-29T18:14:18.481Z,1.75
2023-08-29T18:17:05.613Z,1.90
2023-08-29T18:19:52.806Z,1.80
2023-08-29T18:22:39.903Z,2.08
2023-08-29T18:25:08.103Z,2.15
2023-08-29T18:27:36.306Z,2.10
2023-08-29T18:30:04.472Z,1.90
2023-08-29T18:32:32.865Z,2.00
2023-08-29T18:35:12.996Z,1.75
2023-08-29T18:37:39.882Z,1.92
2023-08-29T18:40:08.390Z,2.00
2023-08-29T18:42:35.393Z,2.20
2023-08-29T18:45:21.033Z,1.77
2023-08-29T18:48:09.472Z,1.90
2023-08-29T18:50:57.431Z,2.10
2023-08-29T18:53:44.580Z,1.80
2023-08-29T18:56:31.750Z,1.80
2023-08-29T18:59:20.142Z,2.63
2023-08-29T19:02:07.488Z,2.35
2023-08-29T19:04:54.687Z,2.40
2023-08-29T19:07:44.368Z,1.80
2023-08-29T19:10:31.958Z,1.98
2023-08-29T19:13:19.098Z,2.53
2023-08-29T19:16:06.277Z,2.22
2023-08-29T19:18:53.451Z,2.33
2023-08-29T19:21:40.639Z,2.28
2023-08-29T19:24:27.826Z,2.15
2023-08-29T19:27:22.662Z,1.92
2023-08-29T19:30:14.893Z,2.47
2023-08-29T19:33:04.858Z,1.98
2023-08-29T19:35:52.253Z,2.20
2023-08-29T19:38:41.474Z,1.92
2023-08-29T19:41:28.678Z,2.13
2023-08-29T19:44:17.484Z,2.00
2023-08-29T19:47:06.854Z,1.90
2023-08-29T19:49:54.568Z,1.95
2023-08-29T19:52:42.133Z,2.22
2023-08-29T19:55:30.721Z,2.25
2023-08-29T19:58:18.709Z,2.10
2023-08-29T20:01:07.309Z,1.88
2023-08-29T20:03:54.585Z,2.38
2023-08-29T20:06:43.296Z,1.92
2023-08-29T20:09:30.630Z,2.20
2023-08-29T20:12:17.787Z,2.10
2023-08-29T20:15:05.501Z,2.00
2023-08-29T20:17:52.878Z,1.83
2023-08-29T20:20:42.045Z,2.00
2023-08-29T20:23:29.711Z,1.98
2023-08-29T20:26:18.603Z,1.77
2023-08-29T20:29:05.847Z,2.20
2023-08-29T20:31:52.989Z,2.10
2023-08-29T20:34:41.143Z,2.00
2023-08-29T20:37:28.823Z,2.00
2023-08-29T20:40:16.028Z,2.30
2023-08-29T20:43:04.677Z,1.88
2023-08-29T20:45:51.851Z,2.22
2023-08-29T20:48:39.031Z,2.20
2023-08-29T20:51:26.321Z,1.98
2023-08-29T20:54:13.486Z,2.30
2023-08-29T20:57:00.587Z,2.40
2023-08-29T20:59:47.908Z,2.30
2023-08-29T21:02:36.480Z,2.42
2023-08-29T21:05:23.869Z,2.47
2023-08-29T21:08:11.331Z,2.25
2023-08-29T21:10:58.666Z,2.10
2023-08-29T21:13:45.855Z,2.38
2023-08-29T21:16:33.083Z,2.30
2023-08-29T21:19:20.655Z,2.00
2023-08-29T21:22:07.761Z,1.88
2023-08-29T21:24:54.909Z,2.45
2023-08-29T21:27:42.018Z,2.17
2023-08-29T21:30:29.109Z,2.08
2023-08-29T21:33:16.386Z,2.30
2023-08-29T21:36:04.274Z,2.38
2023-08-29T21:38:51.421Z,2.33
2023-08-29T21:41:41.142Z,2.17
2023-08-29T21:44:28.320Z,2.20
2023-08-29T21:47:15.403Z,1.95
2023-08-29T21:50:02.562Z,2.17
2023-08-29T21:52:49.669Z,1.92
2023-08-29T21:55:39.477Z,2.35
2023-08-29T21:58:26.580Z,2.25
2023-08-29T22:01:13.759Z,2.28
2023-08-29T22:04:00.871Z,2.42
2023-08-29T22:06:48.365Z,2.47
2023-08-29T22:09:35.466Z,2.65
2023-08-29T22:12:22.572Z,2.42
2023-08-29T22:15:11.037Z,2.70
2023-08-29T22:17:58.255Z,2.35
2023-08-29T22:20:45.440Z,2.05
2023-08-29T22:23:33.707Z,2.70
2023-08-29T22:26:20.851Z,2.45
2023-08-29T22:29:07.968Z,2.30
2023-08-29T22:31:55.169Z,1.98
2023-08-29T22:34:42.971Z,2.28
2023-08-29T22:37:30.085Z,2.13
2023-08-29T22:40:18.080Z,2.13
2023-08-29T22:43:06.101Z,2.25
2023-08-29T22:45:56.422Z,2.20
2023-08-29T22:51:30.674Z,2.40
2023-08-29T22:54:17.854Z,2.58
2023-08-29T22:57:06.408Z,2.58
2023-08-29T22:59:53.555Z,2.58
2023-08-29T23:02:40.907Z,2.63
2023-08-29T23:05:28.221Z,2.40
2023-08-29T23:08:15.437Z,2.40
2023-08-29T23:11:02.815Z,2.53
2023-08-29T23:13:50.215Z,2.45
2023-08-29T23:16:38.432Z,2.10
2023-08-29T23:19:26.727Z,2.30
2023-08-29T23:22:13.871Z,2.28
2023-08-29T23:25:05.435Z,2.50
2023-08-29T23:27:52.890Z,2.58
2023-08-29T23:30:40.039Z,2.42
2023-08-29T23:33:27.351Z,2.10
2023-08-29T23:36:14.493Z,2.10
2023-08-29T23:39:01.598Z,2.17
2023-08-29T23:41:49.037Z,2.28
2023-08-29T23:44:36.265Z,2.25
2023-08-29T23:47:23.442Z,2.30
2023-08-29T23:50:11.570Z,2.13
2023-08-29T23:53:00.187Z,2.30
2023-08-29T23:55:47.448Z,2.22
2023-08-29T23:58:34.634Z,2.30
